Flight Track Log - Related Links

Times and Time Zones

All times are in EST time to prevent confusion due to time zone crossing. See the AAL1552 flight status page for this flight to view local times or setup timezone preferences in your user account.

Time Position Orientation Groundspeed Altitude Reporting Facility
EST Latitude Longitude Course Direction KTS MPH feet Rate Location/Type
Sat 07:24:55 AM 38.7500 -90.3833 133° Southeast 163 188 1,500  Level Gateway (St. Louis) TRACON
Sat 07:25:55 AM 38.7833 -90.4333 311° West 202 232 2,800 1,210 Climbing Gateway (St. Louis) TRACON
Sat 07:26:54 AM 38.8428 -90.4606 340° North 270 311 3,900 1,765 Climbing Kansas City Center
Sat 07:27:00 AM 38.5180 -90.0161 132° Southeast  Level FlightAware Approximate
Sat 07:27:54 AM 38.8806 -90.3647 63° Northeast 303 349 6,300  Level Kansas City Center
Sat 07:28:00 AM 38.4424 -89.8984 127° Southeast  Level FlightAware Approximate
Sat 07:28:54 AM 38.8225 -90.2858 133° Southeast 301 346 8,900  Level Kansas City Center
Sat 07:29:00 AM 38.3690 -89.7785 130° Southeast  Level FlightAware Approximate
Sat 07:29:54 AM 38.7575 -90.2108 138° Southeast 307 353 11,200  Level Kansas City Center
Sat 07:30:00 AM 38.2950 -89.6597 133° Southeast  Level FlightAware Approximate
Sat 07:30:55 AM 38.6850 -90.1244 137° Southeast 342 394 13,600  Level Kansas City Center
Sat 07:31:55 AM 38.6031 -90.0269 137° Southeast 363 418 16,400 2,550 Climbing Kansas City Center
Sat 07:32:55 AM 38.5308 -89.9447 138° Southeast 373 429 18,700 2,132 Climbing Kansas City Center
Sat 07:33:56 AM 38.4383 -89.8767 150° Southeast 380 437 20,700 1,934 Climbing Kansas City Center
Sat 07:34:56 AM 38.3464 -89.8008 147° Southeast 390 449 22,600 1,900 Climbing Kansas City Center
Sat 07:35:56 AM 38.2481 -89.7253 149° Southeast 406 467 24,500 1,750 Climbing Kansas City Center
Sat 07:36:56 AM 38.1461 -89.6483 149° Southeast 423 487 26,100 1,587 Climbing Kansas City Center
Sat 07:37:57 AM 38.0344 -89.5614 148° Southeast 432 497 27,700 1,438 Climbing Kansas City Center
Sat 07:38:57 AM 37.9281 -89.4797 149° Southeast 444 511 29,000 1,250 Climbing Kansas City Center
Sat 07:39:57 AM 37.8294 -89.4019 148° Southeast 455 524 30,200 1,339 Climbing Kansas City Center
Sat 07:40:58 AM 37.7275 -89.3217 148° Southeast 460 529 31,700 1,537 Climbing Kansas City Center
Sat 07:41:58 AM 37.6178 -89.2364 148° Southeast 461 531 33,300 1,600 Climbing Kansas City Center
Sat 07:42:58 AM 37.5108 -89.1550 149° Southeast 452 520 34,900 1,500 Climbing Kansas City Center
Sat 07:43:58 AM 37.4039 -89.0761 150° Southeast 446 513 36,300 1,041 Climbing Kansas City Center
Sat 07:44:59 AM 37.3008 -89.0000 150° Southeast 438 504 37,000 347 Climbing Kansas City Center
Sat 07:45:59 AM 37.1950 -88.9211 149° Southeast 437 503 37,000  Level Kansas City Center
Sat 07:47:00 AM 37.0872 -88.8408 149° Southeast 445 512 37,000  Level Memphis Center
Sat 07:48:00 AM 36.9806 -88.7611 149° Southeast 444 511 37,000  Level Memphis Center
Sat 07:49:01 AM 36.8728 -88.6811 149° Southeast 446 513 37,000  Level Memphis Center
Sat 07:50:01 AM 36.7658 -88.6000 149° Southeast 447 514 37,000  Level Memphis Center
Sat 07:51:02 AM 36.6583 -88.5200 149° Southeast 446 513 37,000  Level Memphis Center
Sat 07:52:02 AM 36.5492 -88.4406 150° Southeast 449 517 37,000  Level Memphis Center
Sat 07:53:03 AM 36.4408 -88.3606 149° Southeast 450 518 37,000  Level Memphis Center
Sat 07:54:04 AM 36.3322 -88.2814 150° Southeast 450 518 37,000  Level Memphis Center
Sat 07:55:04 AM 36.2253 -88.2031 149° Southeast 448 516 37,000  Level Memphis Center
Sat 07:56:05 AM 36.1139 -88.1217 149° Southeast 447 514 37,000  Level Memphis Center
Sat 07:57:05 AM 36.0075 -88.0444 150° Southeast 443 510 37,000  Level Memphis Center
Sat 07:58:06 AM 35.9011 -87.9675 150° Southeast 441 507 37,000  Level Memphis Center
Sat 07:59:06 AM 35.7928 -87.8906 150° Southeast 445 512 37,000  Level Memphis Center
Sat 08:00:07 AM 35.6683 -87.8003 149° Southeast 443 510 37,000  Level Memphis Center
Sat 08:01:08 AM 35.5617 -87.7247 150° Southeast 441 507 37,000  Level Memphis Center
Sat 08:02:08 AM 35.4547 -87.6483 150° Southeast 441 507 37,000  Level Memphis Center
Sat 08:03:09 AM 35.3633 -87.5825 150° Southeast 441 507 37,000  Level Memphis Center
Sat 08:04:09 AM 35.2569 -87.5069 150° Southeast 441 507 37,000  Level Memphis Center
Sat 08:05:10 AM 35.1514 -87.4317 150° Southeast 439 505 37,000  Level Memphis Center
Sat 08:06:11 AM 35.0450 -87.3564 150° Southeast 440 506 37,000  Level Memphis Center
Sat 08:07:11 AM 34.9386 -87.2803 150° Southeast 441 507 37,000  Level Memphis Center
Sat 08:08:12 AM 34.8314 -87.2053 150° Southeast 441 507 37,000  Level Memphis Center
Sat 08:09:13 AM 34.7242 -87.1306 150° Southeast 441 507 37,000  Level Memphis Center
Sat 08:10:05 AM 34.6153 -87.0497 149° Southeast 462 532 37,000  Level Atlanta Center
Sat 08:11:05 AM 34.5064 -86.9781 152° Southeast 451 519 37,000  Level Atlanta Center
Sat 08:12:05 AM 34.4017 -86.9039 150° Southeast 445 512 37,000  Level Atlanta Center
Sat 08:13:05 AM 34.2947 -86.8297 150° Southeast 440 506 37,000  Level Atlanta Center
Sat 08:14:05 AM 34.1881 -86.7558 150° Southeast 440 506 37,000  Level Atlanta Center
Sat 08:15:05 AM 34.0811 -86.6822 150° Southeast 440 506 37,000  Level Atlanta Center
Sat 08:16:05 AM 33.9761 -86.6114 151° Southeast 440 506 37,000  Level Atlanta Center
Sat 08:17:05 AM 33.8692 -86.5406 151° Southeast 433 498 37,000  Level Atlanta Center
Sat 08:18:06 AM 33.7639 -86.4703 151° Southeast 433 498 37,000  Level Atlanta Center
Sat 08:19:05 AM 33.6569 -86.3972 150° Southeast 433 498 37,000  Level Atlanta Center
Sat 08:20:05 AM 33.5642 -86.3322 150° Southeast 433 498 37,000  Level Atlanta Center
Sat 08:21:05 AM 33.4592 -86.2575 149° Southeast 427 491 37,000  Level Atlanta Center
Sat 08:22:05 AM 33.3517 -86.1900 152° Southeast 433 498 37,000  Level Atlanta Center
Sat 08:23:05 AM 33.2425 -86.1153 150° Southeast 441 507 37,000  Level Atlanta Center
Sat 08:24:05 AM 33.1350 -86.0433 151° Southeast 441 507 37,000  Level Atlanta Center
Sat 08:25:06 AM 33.0278 -85.9689 150° Southeast 436 502 37,000  Level Atlanta Center
Sat 08:26:05 AM 32.9100 -85.8922 151° Southeast 441 507 37,000  Level Atlanta Center
Sat 08:27:05 AM 32.8025 -85.8206 151° Southeast 441 507 37,000  Level Atlanta Center
Sat 08:28:05 AM 32.6950 -85.7469 150° Southeast 436 502 37,000  Level Atlanta Center
Sat 08:30:35 AM 32.4367 -85.5806 151° Southeast 440 506 37,000  Level Jacksonville Center
Sat 08:31:35 AM 32.3294 -85.5133 152° Southeast 440 506 37,000  Level Jacksonville Center
Sat 08:32:35 AM 32.2244 -85.4417 150° Southeast 435 501 37,000  Level Jacksonville Center
Sat 08:33:35 AM 32.1150 -85.3725 152° Southeast 440 506 37,000  Level Jacksonville Center
Sat 08:34:35 AM 32.0100 -85.3033 151° Southeast 434 499 37,000  Level Jacksonville Center
Sat 08:35:35 AM 31.9047 -85.2347 151° Southeast 434 499 37,000  Level Jacksonville Center
Sat 08:36:35 AM 31.7975 -85.1658 151° Southeast 434 499 37,000  Level Jacksonville Center
Sat 08:37:35 AM 31.6922 -85.1022 153° Southeast 427 491 37,000  Level Jacksonville Center
Sat 08:38:35 AM 31.5889 -85.0339 151° Southeast 427 491 37,000  Level Jacksonville Center
Sat 08:39:35 AM 31.4814 -84.9633 151° Southeast 427 491 37,000  Level Jacksonville Center
Sat 08:45:15 AM 30.8679 -84.5703 151° Southeast 441 507 37,000  Level FlightAware ADS-B (KONZ)
Sat 08:46:12 AM 30.7652 -84.5055 152° Southeast 442 509 37,000  Level FlightAware ADS-B (KONZ)
Sat 08:46:49 AM 30.7008 -84.4637 151° Southeast 444 511 37,000  Level FlightAware ADS-B (KONZ)
Sat 08:47:37 AM 30.6140 -84.4075 151° Southeast 445 512 37,000  Level FlightAware ADS-B (KONZ)
Sat 08:48:14 AM 30.5482 -84.3652 151° Southeast 444 511 37,000  Level FlightAware ADS-B (KONZ)
Sat 08:49:17 AM 30.4546 -84.3050 151° Southeast 444 511 37,000  Level FlightAware ADS-B (KONZ)
Sat 08:49:50 AM 30.3748 -84.2538 151° Southeast 445 512 37,000  Level FlightAware ADS-B (KONZ)
Sat 08:50:35 AM 30.2934 -84.2018 151° Southeast 445 512 37,000  Level FlightAware ADS-B (KONZ)
Sat 08:51:16 AM 30.2493 -84.1736 151° Southeast 444 511 37,000  Level FlightAware ADS-B (KONZ)
Sat 08:51:55 AM 30.1620 -84.1180 151° Southeast 442 509 37,000  Level FlightAware ADS-B (KONZ)
Sat 08:52:29 AM 30.0918 -84.0733 151° Southeast 441 507 37,000  Level FlightAware ADS-B (KONZ)
Sat 08:53:35 AM 29.9778 -84.0028 151° Southeast 432 497 37,000  Level Jacksonville Center
Sat 08:54:35 AM 29.8697 -83.9344 151° Southeast 432 497 37,000  Level Jacksonville Center
Sat 08:55:35 AM 29.7617 -83.8664 151° Southeast 432 497 37,000 -50 Level Jacksonville Center
Sat 08:56:35 AM 29.6536 -83.7983 151° Southeast 432 497 36,900  Descending Jacksonville Center
Sat 08:57:35 AM 29.5436 -83.7281 151° Southeast 437 503 37,000 50 Climbing Jacksonville Center
Sat 08:58:35 AM 29.4292 -83.6603 153° Southeast 447 514 37,000  Level Jacksonville Center
Sat 08:59:35 AM 29.3189 -83.5881 150° Southeast 453 521 37,000  Level Jacksonville Center
Sat 09:04:59 AM 28.7066 -83.2047 150° Southeast 462 532 37,000  Level FlightAware ADS-B
Sat 09:05:46 AM 28.6442 -83.1665 152° Southeast 462 532 37,000  Level FlightAware ADS-B
Sat 09:06:44 AM 28.5127 -83.0854 152° Southeast 464 534 37,000  Level FlightAware ADS-B
Sat 09:07:20 AM 28.4412 -83.0415 152° Southeast 464 534 37,000  Level FlightAware ADS-B
Sat 09:08:00 AM 28.3691 -82.9975 152° Southeast 465 535 37,000  Level FlightAware ADS-B
Sat 09:08:37 AM 28.2953 -82.9523 152° Southeast 466 536 37,000  Level FlightAware ADS-B
Sat 09:09:26 AM 28.2011 -82.8946 152° Southeast 468 539 37,000  Level FlightAware ADS-B
Sat 09:10:24 AM 28.0963 -82.8307 152° Southeast 467 537 37,000  Level FlightAware ADS-B
Sat 09:11:27 AM 27.9749 -82.7569 152° Southeast 468 539 37,000  Level FlightAware ADS-B
Sat 09:12:28 AM 27.8548 -82.7060 159° South 459 528 37,000  Level FlightAware ADS-B
Sat 09:13:06 AM 27.7726 -82.6750 162° South 459 528 37,000 -525 Level FlightAware ADS-B
Sat 09:13:48 AM 27.6942 -82.6337 155° Southeast 473 544 36,300 -960 Descending FlightAware ADS-B
Sat 09:14:21 AM 27.6326 -82.5843 145° Southeast 477 549 35,800 -900 Descending FlightAware ADS-B
Sat 09:15:08 AM 27.5498 -82.5154 144° Southeast 473 544 35,100 -977 Descending FlightAware ADS-B
Sat 09:15:47 AM 27.4798 -82.4571 144° Southeast 470 541 34,400 -983 Descending FlightAware ADS-B
Sat 09:17:04 AM 27.3458 -82.3464 144° Southeast 468 539 33,200 -956 Descending FlightAware ADS-B
Sat 09:17:40 AM 27.2875 -82.2983 144° Southeast 468 539 32,600 -940 Descending FlightAware ADS-B
Sat 09:18:27 AM 27.2005 -82.2269 144° Southeast 468 539 31,900 -933 Descending FlightAware ADS-B
Sat 09:19:10 AM 27.1372 -82.1748 144° Southeast 470 541 31,200 -929 Descending FlightAware ADS-B
Sat 09:19:51 AM 27.0571 -82.1086 144° Southeast 468 539 30,600 -963 Descending FlightAware ADS-B
Sat 09:20:31 AM 26.9894 -82.0523 143° Southeast 468 539 29,900 -987 Descending FlightAware ADS-B
Sat 09:21:10 AM 26.9167 -81.9927 144° Southeast 462 532 29,300 -975 Descending FlightAware ADS-B
Sat 09:21:51 AM 26.8474 -81.9364 144° Southeast 453 521 28,600 -1,050 Descending FlightAware ADS-B
Sat 09:22:30 AM 26.7802 -81.8817 144° Southeast 448 516 27,900 -1,050 Descending FlightAware ADS-B
Sat 09:23:11 AM 26.7129 -81.8270 144° Southeast 445 512 27,200 -1,037 Descending FlightAware ADS-B
Sat 09:23:51 AM 26.6479 -81.7740 144° Southeast 444 511 26,500 -975 Descending FlightAware ADS-B
Sat 09:24:31 AM 26.5851 -81.7228 144° Southeast 441 507 25,900 -955 Descending FlightAware ADS-B
Sat 09:25:19 AM 26.5022 -81.6556 144° Southeast 435 501 25,100 -1,313 Descending FlightAware ADS-B
Sat 09:26:07 AM 26.4375 -81.6056 144° Southeast 446 513 23,800 -1,889 Descending Miami Center
Sat 09:27:07 AM 26.3461 -81.5300 143° Southeast 434 499 21,700 -2,100 Descending Miami Center
Sat 09:28:07 AM 26.2525 -81.4547 144° Southeast 424 488 19,600 -1,650 Descending Miami Center
Sat 09:29:07 AM 26.1528 -81.3744 144° Southeast 414 476 18,400 -1,850 Descending Miami Center
Sat 09:30:07 AM 26.0833 -81.3186 144° Southeast 381 438 15,900 -2,500 Descending Miami Center
Sat 09:31:07 AM 25.9978 -81.2508 145° Southeast 352 405 13,400 -1,850 Descending Miami Center
Sat 09:32:07 AM 25.9583 -81.1683 118° Southeast 340 391 12,200 -1,200 Descending Miami Center
Sat 09:32:22 AM 25.9406 -81.1333 119° Southeast 351 404 11,900 -1,114 Descending Miami Center
Sat 09:33:17 AM 25.9139 -81.0444 108° East 322 371 10,900 -1,029 Descending Miami Center
Sat 09:34:07 AM 25.8947 -80.9839 109° East 314 361 10,100 -984 Descending Miami Center
Sat 09:34:18 AM 25.8831 -80.9603 119° Southeast 297 342 9,900 -1,300 Descending Miami Center
Sat 09:35:07 AM 25.8594 -80.9017 114° Southeast 302 348 8,800 -1,343 Descending Miami Center
Sat 09:35:25 AM 25.8394 -80.8758 131° Southeast 290 334 8,400 -1,400 Descending Miami Center
Sat 09:36:07 AM 25.8133 -80.8286 122° Southeast 291 335 7,400 -1,065 Descending Miami Center
Sat 09:36:27 AM 25.7892 -80.8003 133° Southeast 282 325 7,300 -500 Descending Miami Center
Sat 09:37:07 AM 25.7733 -80.7650 116° Southeast 276 318 6,900 -590 Descending Miami Center
Sat 09:37:28 AM 25.7658 -80.7347 105° East 218 251 6,700 -700 Descending Miami Center
Sat 09:38:07 AM 25.7708 -80.7006 81° East 218 251 6,200 -984 Descending Miami Center
Sat 09:38:29 AM 25.7694 -80.6750 93° East 177 204 5,700 -1,100 Descending Miami Center
Sat 09:39:07 AM 25.7725 -80.6383 85° East 195 224 5,100 -787 Descending Miami Center
Sat 09:39:30 AM 25.7708 -80.6197 96° East 179 206 4,900 -600 Descending Miami Center
Sat 09:40:07 AM 25.7761 -80.5831 81° East 187 215 4,500 -689 Descending Miami Center
Sat 09:40:31 AM 25.7725 -80.5597 100° East 180 207 4,200 -900 Descending Miami Center
Sat 09:41:07 AM 25.7775 -80.5253 81° East 181 208 3,600 -873 Descending Miami Center
Sat 09:41:26 AM 25.7758 -80.5114 98° East 183 211 3,400 -900 Descending Miami Center
Sat 09:42:07 AM 25.7811 -80.4678 82° East 176 203 2,700 -1,082 Descending Miami Center
Sat 09:42:27 AM 25.7772 -80.4514 105° East 184 212 2,300 -963 Descending Miami Center
Sat 09:43:28 AM 25.7806 -80.3961 86° East 178 205 1,400 -844 Descending Miami Center
Sat 09:44:35 AM 25.7819 -80.3433 88° East 150 173 500 -806 Descending Miami Center

Login

Don't have an account? Register now (free) for customized features, flight alerts, and more!